AirNav   Bose ProFlight Series 2 Headset
 
 1389 users online  

2IA3 Medical Heliport
Mount Pleasant, Iowa, USA

GOING TO MOUNT PLEASANT?


FAA INFORMATION EFFECTIVE 30 JANUARY 2020

Location

FAA Identifier: 2IA3
Lat/Long: 40-57-42.0100N 091-33-37.3100W
40-57.700167N 091-33.621833W
40.9616694,-91.5603639
(estimated)
Elevation: 734 ft. / 224 m (estimated)
Variation: 02E (1985)
Time zone: UTC -6 (UTC -5 during Daylight Saving Time)
Zip code: 52641

Heliport Operations

Heliport use: Private use, MEDICAL.
Activation date: 12/1982
Control tower: no
ARTCC: CHICAGO CENTER
FSS: FORT DODGE FLIGHT SERVICE STATION
Attendance: CONTINUOUS
Wind indicator: lighted
Segmented circle: no
Lights: 24 HRS
Beacon: BLUE STROBE LIGHT.

Heliport Communications

WX AWOS-3 at MPZ (2.4 nm E): 119.325 (319-385-4926)
WX AWOS-3 at AWG (20 nm N): 127.825 (319-653-4149)
WX AWOS-3 at FFL (20 nm W): 132.025 (641-472-4548)

Nearby radio navigation aids

VOR radial/distance  VOR name  Freq  Var
BRLr291/32.2BURLINGTON VOR/DME111.4005E
IOWr171/33.5IOWA CITY VOR/DME116.2005E
OTMr091/34.9OTTUMWA VOR/DME111.6006E

 
NDB name  Hdg/Dist  Freq  Var  ID
KEOKUK347/30.436602EEOK . --- -.-

Heliport Services

Runway Information

Helipad H1

Dimensions: 30 x 30 ft. / 9 x 9 m
Surface: concrete
Runway edge lights: PERI
Latitude: 40-57.700167N
Longitude: 091-33.621833W
Elevation: 734.0 ft.
Traffic pattern: leftleft

Heliport Ownership and Management from official FAA records

Ownership: Publicly-owned
Owner: HENRY CO. HEALTH CENTER
407 S WHITE ST
MT. PLEASANT, IA 52641
Phone 319-385-3141
Manager: DAN WALDERBACH
407 S WHITE ST
MT. PLEASANT, IA 52641
Phone 319-385-3141

Additional Remarks

A52-H1 90' ANT-L 150' N & E; BLDG-L N & E
FOR CD CTC CHICAGO ARTCC AT 630-906-8921.

Instrument Procedures

There are no published instrument procedures at 2IA3.

Some nearby airports with instrument procedures:

KMPZ - Mount Pleasant Municipal Airport (2 nm E)
KAWG - Washington Municipal Airport (20 nm N)
KFFL - Fairfield Municipal Airport (20 nm W)
KFSW - Fort Madison Municipal Airport (21 nm SE)
KBRL - Southeast Iowa Regional Airport (22 nm SE)
 
Loc | Ops | Rwys | IFR | FBO | Links
Com | Nav | Svcs | Stats | Notes
Area around 2IA3 (Medical Heliport)
 
Road maps at: MapQuest Bing Google
 
Aerial photo
No photo
 
Sectional chart

 
Airport distance calculator
Flying to Medical Heliport? Find the distance to fly.

From to 2IA3

Sunrise and sunset
Times for 17-Feb-2020
 Local
(UTC-6)
 Zulu
(UTC)
Morning civil twilight06:3112:31
Sunrise06:5912:59
Sunset17:4223:42
Evening civil twilight18:1000:10

Current date and time
Zulu (UTC)  17-Feb-2020 17:09:46
Local (UTC-6)  17-Feb-2020 11:09:46
 
METAR
KMPZ 
2nm E 
171655Z AUTO 13011KT 5SM BR SCT006 SCT095 BKN120 04/03 A2989 RMK AO2
KFFL 
19nm W 
171655Z AUTO 13011KT 5SM BR CLR 03/03 A2988 RMK A01
KAWG 
19nm N 
171655Z AUTO 13011KT 4SM BR CLR 03/03 A2989 RMK AO2 P0001
TAF
KBRL 
23nm SE 
171439Z 1715/1812 13008KT 4SM -RA BR OVC035 FM171600 14008KT 3SM -RA BR OVC025 FM171800 14008KT 2SM -RA BR OVC010 FM172100 14008KT 1 1/2SM BR OVC008 FM180300 29012KT P6SM OVC015 FM181000 33013KT P6SM BKN035
NOTAMs
Click for the latest NOTAMs
NOTAMs are issued by the DoD/FAA and will open in a separate window not controlled by AirNav.

 

 
 

Would you like to see your business listed on this page?

 If your business provides an interesting product or service to pilots, flight crews, aircraft, or users of the Medical Heliport, you should consider listing it here.  To start the listing process, click on the button below
 
Add a business
 

Other Pages about Medical Heliport

Update a link
 
Copyright © AirNav, LLC. All rights reserved. Privacy Policy  Contact